sensor_id;sensor_type;location;lat;lon;timestamp;temperature;humidity
9776;DHT22;4927;52.472;13.108;2023-01-23T00:04:43;1.90;99.90
9776;DHT22;4927;52.472;13.108;2023-01-23T00:09:50;1.90;99.90
9776;DHT22;4927;52.472;13.108;2023-01-23T00:14:57;1.90;99.90
9776;DHT22;4927;52.472;13.108;2023-01-23T00:20:04;1.80;99.90
9776;DHT22;4927;52.472;13.108;2023-01-23T00:25:11;1.90;99.90
9776;DHT22;4927;52.472;13.108;2023-01-23T00:30:17;1.90;99.90
9776;DHT22;4927;52.472;13.108;2023-01-23T00:35:24;1.90;99.90
9776;DHT22;4927;52.472;13.108;2023-01-23T00:40:30;1.90;99.90
9776;DHT22;4927;52.472;13.108;2023-01-23T00:45:34;1.90;99.90
9776;DHT22;4927;52.472;13.108;2023-01-23T00:50:40;1.80;99.90
9776;DHT22;4927;52.472;13.108;2023-01-23T00:55:47;1.90;99.90
9776;DHT22;4927;52.472;13.108;2023-01-23T01:00:54;2.00;99.90
9776;DHT22;4927;52.472;13.108;2023-01-23T01:06:00;1.90;99.90
9776;DHT22;4927;52.472;13.108;2023-01-23T01:11:06;1.80;99.90
9776;DHT22;4927;52.472;13.108;2023-01-23T01:16:12;1.90;99.90
9776;DHT22;4927;52.472;13.108;2023-01-23T01:21:19;1.90;99.90
9776;DHT22;4927;52.472;13.108;2023-01-23T01:26:26;1.80;99.90
9776;DHT22;4927;52.472;13.108;2023-01-23T01:31:32;1.80;99.90
9776;DHT22;4927;52.472;13.108;2023-01-23T01:36:39;1.90;99.90
9776;DHT22;4927;52.472;13.108;2023-01-23T01:41:45;1.80;99.90
9776;DHT22;4927;52.472;13.108;2023-01-23T01:46:51;1.90;99.90
9776;DHT22;4927;52.472;13.108;2023-01-23T01:52:01;1.80;99.90
9776;DHT22;4927;52.472;13.108;2023-01-23T01:57:23;1.80;99.90
9776;DHT22;4927;52.472;13.108;2023-01-23T02:02:32;1.80;99.90
9776;DHT22;4927;52.472;13.108;2023-01-23T02:07:43;1.80;99.90
9776;DHT22;4927;52.472;13.108;2023-01-23T02:12:49;1.90;99.90
9776;DHT22;4927;52.472;13.108;2023-01-23T02:17:54;1.90;99.90
9776;DHT22;4927;52.472;13.108;2023-01-23T02:23:19;1.80;99.90
9776;DHT22;4927;52.472;13.108;2023-01-23T02:28:34;1.90;99.90
9776;DHT22;4927;52.472;13.108;2023-01-23T02:33:45;1.90;99.90
9776;DHT22;4927;52.472;13.108;2023-01-23T02:38:53;1.90;99.90
9776;DHT22;4927;52.472;13.108;2023-01-23T02:43:58;1.90;99.90
9776;DHT22;4927;52.472;13.108;2023-01-23T02:49:04;1.80;99.90
9776;DHT22;4927;52.472;13.108;2023-01-23T02:54:11;1.90;99.90
9776;DHT22;4927;52.472;13.108;2023-01-23T02:59:17;1.90;99.90
9776;DHT22;4927;52.472;13.108;2023-01-23T03:04:33;1.90;99.90
9776;DHT22;4927;52.472;13.108;2023-01-23T03:09:40;1.80;99.90
9776;DHT22;4927;52.472;13.108;2023-01-23T03:14:50;2.00;99.90
9776;DHT22;4927;52.472;13.108;2023-01-23T03:20:00;2.00;99.90
9776;DHT22;4927;52.472;13.108;2023-01-23T03:25:05;2.00;99.90
9776;DHT22;4927;52.472;13.108;2023-01-23T03:30:15;2.00;99.90
9776;DHT22;4927;52.472;13.108;2023-01-23T03:35:22;2.00;99.90
9776;DHT22;4927;52.472;13.108;2023-01-23T03:40:32;2.00;99.90
9776;DHT22;4927;52.472;13.108;2023-01-23T03:45:45;2.00;99.90
9776;DHT22;4927;52.472;13.108;2023-01-23T03:50:55;1.90;99.90
9776;DHT22;4927;52.472;13.108;2023-01-23T03:56:06;1.90;99.90
9776;DHT22;4927;52.472;13.108;2023-01-23T04:01:16;2.00;99.90
9776;DHT22;4927;52.472;13.108;2023-01-23T04:06:22;2.00;99.90
9776;DHT22;4927;52.472;13.108;2023-01-23T04:11:36;2.00;99.90
9776;DHT22;4927;52.472;13.108;2023-01-23T04:16:45;2.00;99.90
9776;DHT22;4927;52.472;13.108;2023-01-23T04:21:55;1.90;99.90
9776;DHT22;4927;52.472;13.108;2023-01-23T04:27:01;2.00;99.90
9776;DHT22;4927;52.472;13.108;2023-01-23T04:32:08;2.00;99.90
9776;DHT22;4927;52.472;13.108;2023-01-23T04:37:12;2.00;99.90
9776;DHT22;4927;52.472;13.108;2023-01-23T04:42:19;2.10;99.90
9776;DHT22;4927;52.472;13.108;2023-01-23T04:47:25;2.10;99.90
9776;DHT22;4927;52.472;13.108;2023-01-23T04:52:31;2.00;99.90
9776;DHT22;4927;52.472;13.108;2023-01-23T04:57:37;2.00;99.90
9776;DHT22;4927;52.472;13.108;2023-01-23T05:02:45;2.00;99.90
9776;DHT22;4927;52.472;13.108;2023-01-23T05:07:51;2.00;99.90
9776;DHT22;4927;52.472;13.108;2023-01-23T05:12:57;2.10;99.90
9776;DHT22;4927;52.472;13.108;2023-01-23T05:18:03;2.10;99.90
9776;DHT22;4927;52.472;13.108;2023-01-23T05:23:10;2.00;99.90
9776;DHT22;4927;52.472;13.108;2023-01-23T05:28:16;2.00;99.90
9776;DHT22;4927;52.472;13.108;2023-01-23T05:33:22;2.00;99.90
9776;DHT22;4927;52.472;13.108;2023-01-23T05:38:26;2.10;99.90
9776;DHT22;4927;52.472;13.108;2023-01-23T05:43:33;2.00;99.90
9776;DHT22;4927;52.472;13.108;2023-01-23T05:48:39;2.10;99.90
9776;DHT22;4927;52.472;13.108;2023-01-23T05:53:44;2.10;99.90
9776;DHT22;4927;52.472;13.108;2023-01-23T05:58:51;2.00;99.90
9776;DHT22;4927;52.472;13.108;2023-01-23T06:03:57;2.00;99.90
9776;DHT22;4927;52.472;13.108;2023-01-23T06:09:03;2.00;99.90
9776;DHT22;4927;52.472;13.108;2023-01-23T06:14:13;2.10;99.90
9776;DHT22;4927;52.472;13.108;2023-01-23T06:19:19;2.10;99.90
9776;DHT22;4927;52.472;13.108;2023-01-23T06:24:24;2.10;99.90
9776;DHT22;4927;52.472;13.108;2023-01-23T06:29:30;2.10;99.90
9776;DHT22;4927;52.472;13.108;2023-01-23T06:34:37;2.00;99.90
9776;DHT22;4927;52.472;13.108;2023-01-23T06:39:43;2.00;99.90
9776;DHT22;4927;52.472;13.108;2023-01-23T06:44:49;1.90;99.90
9776;DHT22;4927;52.472;13.108;2023-01-23T06:55:22;2.00;99.90
9776;DHT22;4927;52.472;13.108;2023-01-23T07:00:28;2.00;99.90
9776;DHT22;4927;52.472;13.108;2023-01-23T07:05:35;2.00;99.90
9776;DHT22;4927;52.472;13.108;2023-01-23T07:10:41;2.10;99.90
9776;DHT22;4927;52.472;13.108;2023-01-23T07:15:48;2.10;99.90
9776;DHT22;4927;52.472;13.108;2023-01-23T07:20:54;2.10;99.90
9776;DHT22;4927;52.472;13.108;2023-01-23T07:26:03;2.00;99.90
9776;DHT22;4927;52.472;13.108;2023-01-23T07:31:12;2.00;99.90
9776;DHT22;4927;52.472;13.108;2023-01-23T07:36:18;2.10;99.90
9776;DHT22;4927;52.472;13.108;2023-01-23T07:41:24;2.20;99.90
9776;DHT22;4927;52.472;13.108;2023-01-23T07:46:31;2.20;99.90
9776;DHT22;4927;52.472;13.108;2023-01-23T07:51:38;2.20;99.90
9776;DHT22;4927;52.472;13.108;2023-01-23T07:56:44;2.10;99.90
9776;DHT22;4927;52.472;13.108;2023-01-23T08:01:50;2.10;99.90
9776;DHT22;4927;52.472;13.108;2023-01-23T08:06:57;2.10;99.90
9776;DHT22;4927;52.472;13.108;2023-01-23T08:12:04;2.10;99.90
9776;DHT22;4927;52.472;13.108;2023-01-23T08:17:10;2.10;99.90
9776;DHT22;4927;52.472;13.108;2023-01-23T08:22:16;2.20;99.90
9776;DHT22;4927;52.472;13.108;2023-01-23T08:27:22;2.10;99.90
9776;DHT22;4927;52.472;13.108;2023-01-23T08:32:27;2.10;99.90
9776;DHT22;4927;52.472;13.108;2023-01-23T08:37:33;2.20;99.90
9776;DHT22;4927;52.472;13.108;2023-01-23T08:42:39;2.20;99.90
9776;DHT22;4927;52.472;13.108;2023-01-23T08:47:46;2.20;99.90
9776;DHT22;4927;52.472;13.108;2023-01-23T08:52:53;2.20;99.90
9776;DHT22;4927;52.472;13.108;2023-01-23T08:57:58;2.20;99.90
9776;DHT22;4927;52.472;13.108;2023-01-23T09:03:05;2.30;99.90
9776;DHT22;4927;52.472;13.108;2023-01-23T09:08:11;2.30;99.90
9776;DHT22;4927;52.472;13.108;2023-01-23T09:13:18;2.30;99.90
9776;DHT22;4927;52.472;13.108;2023-01-23T09:18:23;2.30;99.90
9776;DHT22;4927;52.472;13.108;2023-01-23T09:23:28;2.30;99.90
9776;DHT22;4927;52.472;13.108;2023-01-23T09:28:34;2.30;99.90
9776;DHT22;4927;52.472;13.108;2023-01-23T09:33:44;2.30;99.90
9776;DHT22;4927;52.472;13.108;2023-01-23T09:38:50;2.30;99.90
9776;DHT22;4927;52.472;13.108;2023-01-23T09:44:08;2.40;99.90
9776;DHT22;4927;52.472;13.108;2023-01-23T09:49:16;2.40;99.90
9776;DHT22;4927;52.472;13.108;2023-01-23T09:54:45;2.50;99.90
9776;DHT22;4927;52.472;13.108;2023-01-23T09:59:53;2.40;99.90
9776;DHT22;4927;52.472;13.108;2023-01-23T10:04:58;2.50;99.90
9776;DHT22;4927;52.472;13.108;2023-01-23T10:15:43;2.40;99.90
9776;DHT22;4927;52.472;13.108;2023-01-23T10:20:50;2.50;99.90
9776;DHT22;4927;52.472;13.108;2023-01-23T10:25:55;2.60;99.90
9776;DHT22;4927;52.472;13.108;2023-01-23T10:31:03;2.70;99.90
9776;DHT22;4927;52.472;13.108;2023-01-23T10:36:14;2.70;99.90
9776;DHT22;4927;52.472;13.108;2023-01-23T10:41:16;2.70;99.90
9776;DHT22;4927;52.472;13.108;2023-01-23T10:46:27;2.80;99.90
9776;DHT22;4927;52.472;13.108;2023-01-23T10:51:49;2.80;99.90
9776;DHT22;4927;52.472;13.108;2023-01-23T10:56:59;2.80;99.90
9776;DHT22;4927;52.472;13.108;2023-01-23T11:02:20;2.90;99.90
9776;DHT22;4927;52.472;13.108;2023-01-23T11:07:28;2.90;99.90
9776;DHT22;4927;52.472;13.108;2023-01-23T11:12:34;2.90;99.90
9776;DHT22;4927;52.472;13.108;2023-01-23T11:17:40;2.90;99.90
9776;DHT22;4927;52.472;13.108;2023-01-23T11:22:46;2.80;99.90
9776;DHT22;4927;52.472;13.108;2023-01-23T11:27:56;2.90;99.90
9776;DHT22;4927;52.472;13.108;2023-01-23T11:33:18;2.90;99.90
9776;DHT22;4927;52.472;13.108;2023-01-23T11:38:24;2.90;99.90
9776;DHT22;4927;52.472;13.108;2023-01-23T11:43:28;2.80;99.90
9776;DHT22;4927;52.472;13.108;2023-01-23T11:48:47;2.80;99.90
9776;DHT22;4927;52.472;13.108;2023-01-23T11:54:32;3.00;99.90
9776;DHT22;4927;52.472;13.108;2023-01-23T11:59:43;2.70;99.90
9776;DHT22;4927;52.472;13.108;2023-01-23T12:04:59;2.70;99.90
9776;DHT22;4927;52.472;13.108;2023-01-23T12:15:36;2.70;99.90
9776;DHT22;4927;52.472;13.108;2023-01-23T12:21:02;2.70;99.90
9776;DHT22;4927;52.472;13.108;2023-01-23T12:26:11;2.70;99.90
9776;DHT22;4927;52.472;13.108;2023-01-23T12:32:24;2.60;99.90
9776;DHT22;4927;52.472;13.108;2023-01-23T12:43:15;2.70;99.90
9776;DHT22;4927;52.472;13.108;2023-01-23T12:48:26;2.80;99.90
9776;DHT22;4927;52.472;13.108;2023-01-23T12:53:36;2.80;99.90
9776;DHT22;4927;52.472;13.108;2023-01-23T12:58:49;2.90;99.90
9776;DHT22;4927;52.472;13.108;2023-01-23T13:09:55;2.70;99.90
9776;DHT22;4927;52.472;13.108;2023-01-23T13:20:23;2.60;99.90
9776;DHT22;4927;52.472;13.108;2023-01-23T13:25:40;2.70;99.90
9776;DHT22;4927;52.472;13.108;2023-01-23T13:30:58;2.70;99.90
9776;DHT22;4927;52.472;13.108;2023-01-23T13:36:13;2.60;99.90
9776;DHT22;4927;52.472;13.108;2023-01-23T13:41:27;2.60;99.90
9776;DHT22;4927;52.472;13.108;2023-01-23T13:46:56;2.70;99.90
9776;DHT22;4927;52.472;13.108;2023-01-23T13:52:05;2.60;99.90
9776;DHT22;4927;52.472;13.108;2023-01-23T13:57:13;2.60;99.90
9776;DHT22;4927;52.472;13.108;2023-01-23T14:02:30;2.70;99.90
9776;DHT22;4927;52.472;13.108;2023-01-23T14:07:45;2.60;99.90
9776;DHT22;4927;52.472;13.108;2023-01-23T14:13:10;2.60;99.90
9776;DHT22;4927;52.472;13.108;2023-01-23T14:18:44;2.60;99.90
9776;DHT22;4927;52.472;13.108;2023-01-23T14:23:53;2.60;99.90
9776;DHT22;4927;52.472;13.108;2023-01-23T14:29:04;2.60;99.90
9776;DHT22;4927;52.472;13.108;2023-01-23T14:34:15;2.60;99.90
9776;DHT22;4927;52.472;13.108;2023-01-23T14:39:26;2.60;99.90
9776;DHT22;4927;52.472;13.108;2023-01-23T14:44:42;2.60;99.90
9776;DHT22;4927;52.472;13.108;2023-01-23T14:49:52;2.60;99.90
9776;DHT22;4927;52.472;13.108;2023-01-23T14:54:58;2.50;99.90
9776;DHT22;4927;52.472;13.108;2023-01-23T15:00:12;2.50;99.90
9776;DHT22;4927;52.472;13.108;2023-01-23T15:05:21;2.40;99.90
9776;DHT22;4927;52.472;13.108;2023-01-23T15:10:33;2.50;99.90
9776;DHT22;4927;52.472;13.108;2023-01-23T15:15:44;2.50;99.90
9776;DHT22;4927;52.472;13.108;2023-01-23T15:20:54;2.50;99.90
9776;DHT22;4927;52.472;13.108;2023-01-23T15:26:07;2.50;99.90
9776;DHT22;4927;52.472;13.108;2023-01-23T15:31:31;2.50;99.90
9776;DHT22;4927;52.472;13.108;2023-01-23T15:36:58;2.40;99.90
9776;DHT22;4927;52.472;13.108;2023-01-23T15:42:29;2.40;99.90
9776;DHT22;4927;52.472;13.108;2023-01-23T15:47:38;2.40;99.90
9776;DHT22;4927;52.472;13.108;2023-01-23T15:52:49;2.30;99.90
9776;DHT22;4927;52.472;13.108;2023-01-23T15:58:00;2.30;99.90
9776;DHT22;4927;52.472;13.108;2023-01-23T16:03:10;2.30;99.90
9776;DHT22;4927;52.472;13.108;2023-01-23T16:08:21;2.20;99.90
9776;DHT22;4927;52.472;13.108;2023-01-23T16:13:32;2.20;99.90
9776;DHT22;4927;52.472;13.108;2023-01-23T16:18:42;2.30;99.90
9776;DHT22;4927;52.472;13.108;2023-01-23T16:23:52;2.30;99.90
9776;DHT22;4927;52.472;13.108;2023-01-23T16:28:58;2.20;99.90
9776;DHT22;4927;52.472;13.108;2023-01-23T16:34:05;2.30;99.90
9776;DHT22;4927;52.472;13.108;2023-01-23T16:39:16;2.20;99.90
9776;DHT22;4927;52.472;13.108;2023-01-23T16:44:26;2.30;99.90
9776;DHT22;4927;52.472;13.108;2023-01-23T16:49:32;2.20;99.90
9776;DHT22;4927;52.472;13.108;2023-01-23T16:54:43;2.20;99.90
9776;DHT22;4927;52.472;13.108;2023-01-23T16:59:49;2.20;99.90
9776;DHT22;4927;52.472;13.108;2023-01-23T17:05:00;2.20;99.90
9776;DHT22;4927;52.472;13.108;2023-01-23T17:10:12;2.20;99.90
9776;DHT22;4927;52.472;13.108;2023-01-23T17:15:25;2.20;99.90
9776;DHT22;4927;52.472;13.108;2023-01-23T17:20:34;2.20;99.90
9776;DHT22;4927;52.472;13.108;2023-01-23T17:25:40;2.20;99.90
9776;DHT22;4927;52.472;13.108;2023-01-23T17:30:48;2.20;99.90
9776;DHT22;4927;52.472;13.108;2023-01-23T17:35:58;2.10;99.90
9776;DHT22;4927;52.472;13.108;2023-01-23T17:41:04;2.10;99.90
9776;DHT22;4927;52.472;13.108;2023-01-23T17:46:18;2.10;99.90
9776;DHT22;4927;52.472;13.108;2023-01-23T17:51:25;2.10;99.90
9776;DHT22;4927;52.472;13.108;2023-01-23T17:56:35;2.10;99.90
9776;DHT22;4927;52.472;13.108;2023-01-23T18:01:41;2.10;99.90
9776;DHT22;4927;52.472;13.108;2023-01-23T18:06:48;2.10;99.90
9776;DHT22;4927;52.472;13.108;2023-01-23T18:11:54;2.10;99.90
9776;DHT22;4927;52.472;13.108;2023-01-23T18:16:58;2.00;99.90
9776;DHT22;4927;52.472;13.108;2023-01-23T18:22:07;2.10;99.90
9776;DHT22;4927;52.472;13.108;2023-01-23T18:27:25;2.00;99.90
9776;DHT22;4927;52.472;13.108;2023-01-23T18:32:53;1.90;99.90
9776;DHT22;4927;52.472;13.108;2023-01-23T18:38:20;1.90;99.90
9776;DHT22;4927;52.472;13.108;2023-01-23T18:43:35;1.90;99.90
9776;DHT22;4927;52.472;13.108;2023-01-23T18:48:41;1.90;99.90
9776;DHT22;4927;52.472;13.108;2023-01-23T18:59:44;1.90;99.90
9776;DHT22;4927;52.472;13.108;2023-01-23T19:04:54;1.90;99.90
9776;DHT22;4927;52.472;13.108;2023-01-23T19:09:58;1.90;99.90
9776;DHT22;4927;52.472;13.108;2023-01-23T19:20:49;1.80;99.90
9776;DHT22;4927;52.472;13.108;2023-01-23T19:25:55;1.90;99.90
9776;DHT22;4927;52.472;13.108;2023-01-23T19:31:02;1.80;99.90
9776;DHT22;4927;52.472;13.108;2023-01-23T19:36:13;1.80;99.90
9776;DHT22;4927;52.472;13.108;2023-01-23T19:41:24;1.80;99.90
9776;DHT22;4927;52.472;13.108;2023-01-23T19:46:29;1.80;99.90
9776;DHT22;4927;52.472;13.108;2023-01-23T19:51:34;1.70;99.90
9776;DHT22;4927;52.472;13.108;2023-01-23T19:56:41;1.80;99.90
9776;DHT22;4927;52.472;13.108;2023-01-23T20:01:49;1.80;99.90
9776;DHT22;4927;52.472;13.108;2023-01-23T20:06:55;1.80;99.90
9776;DHT22;4927;52.472;13.108;2023-01-23T20:12:01;1.70;99.90
9776;DHT22;4927;52.472;13.108;2023-01-23T20:17:08;1.70;99.90
9776;DHT22;4927;52.472;13.108;2023-01-23T20:22:12;1.70;99.90
9776;DHT22;4927;52.472;13.108;2023-01-23T20:27:18;1.80;99.90
9776;DHT22;4927;52.472;13.108;2023-01-23T20:32:24;1.70;99.90
9776;DHT22;4927;52.472;13.108;2023-01-23T20:37:31;1.70;99.90
9776;DHT22;4927;52.472;13.108;2023-01-23T20:42:37;1.80;99.90
9776;DHT22;4927;52.472;13.108;2023-01-23T20:47:43;1.80;99.90
9776;DHT22;4927;52.472;13.108;2023-01-23T20:52:50;1.80;99.90
9776;DHT22;4927;52.472;13.108;2023-01-23T20:58:02;1.80;99.90
9776;DHT22;4927;52.472;13.108;2023-01-23T21:03:25;1.70;99.90
9776;DHT22;4927;52.472;13.108;2023-01-23T21:08:32;1.70;99.90
9776;DHT22;4927;52.472;13.108;2023-01-23T21:13:37;1.70;99.90
9776;DHT22;4927;52.472;13.108;2023-01-23T21:18:43;1.80;99.90
9776;DHT22;4927;52.472;13.108;2023-01-23T21:23:48;1.70;99.90
9776;DHT22;4927;52.472;13.108;2023-01-23T21:28:55;1.80;99.90
9776;DHT22;4927;52.472;13.108;2023-01-23T21:34:02;1.80;99.90
9776;DHT22;4927;52.472;13.108;2023-01-23T21:39:08;1.70;99.90
9776;DHT22;4927;52.472;13.108;2023-01-23T21:44:14;1.70;99.90
9776;DHT22;4927;52.472;13.108;2023-01-23T21:49:25;1.70;99.90
9776;DHT22;4927;52.472;13.108;2023-01-23T21:54:32;1.50;99.90
9776;DHT22;4927;52.472;13.108;2023-01-23T21:59:38;1.60;99.90
9776;DHT22;4927;52.472;13.108;2023-01-23T22:04:44;1.60;99.90
9776;DHT22;4927;52.472;13.108;2023-01-23T22:09:50;1.60;99.90
9776;DHT22;4927;52.472;13.108;2023-01-23T22:14:56;1.60;99.90
9776;DHT22;4927;52.472;13.108;2023-01-23T22:20:01;1.50;99.90
9776;DHT22;4927;52.472;13.108;2023-01-23T22:25:08;1.50;99.90
9776;DHT22;4927;52.472;13.108;2023-01-23T22:30:14;1.50;99.90
9776;DHT22;4927;52.472;13.108;2023-01-23T22:35:20;1.50;99.90
9776;DHT22;4927;52.472;13.108;2023-01-23T22:40:27;1.40;99.90
9776;DHT22;4927;52.472;13.108;2023-01-23T22:45:34;1.40;99.90
9776;DHT22;4927;52.472;13.108;2023-01-23T22:50:41;1.30;99.90
9776;DHT22;4927;52.472;13.108;2023-01-23T22:55:48;1.30;99.90
9776;DHT22;4927;52.472;13.108;2023-01-23T23:00:54;1.30;99.90
9776;DHT22;4927;52.472;13.108;2023-01-23T23:06:02;1.40;99.90
9776;DHT22;4927;52.472;13.108;2023-01-23T23:11:09;1.40;99.90
9776;DHT22;4927;52.472;13.108;2023-01-23T23:16:16;1.40;99.90
9776;DHT22;4927;52.472;13.108;2023-01-23T23:21:24;1.30;99.90
9776;DHT22;4927;52.472;13.108;2023-01-23T23:26:29;1.30;99.90
9776;DHT22;4927;52.472;13.108;2023-01-23T23:31:35;1.30;99.90
9776;DHT22;4927;52.472;13.108;2023-01-23T23:36:42;1.20;99.90
9776;DHT22;4927;52.472;13.108;2023-01-23T23:41:49;1.20;99.90
9776;DHT22;4927;52.472;13.108;2023-01-23T23:46:55;1.20;99.90
9776;DHT22;4927;52.472;13.108;2023-01-23T23:52:00;1.20;99.90
9776;DHT22;4927;52.472;13.108;2023-01-23T23:57:06;1.20;99.90
